Calumet — WDE3568 — position and weather

sailwx.info

Track history (hours):
 
Tides and Currents Weather Stations Pressure Air Temp Water Temp Dewpoint Dewpoint Depression Visibility Wind Speed Wind Dir Waves Ship Positions

Calumet

Owner: Grand River Navigation Company, Traverse City, MI. More information available from US FCC via Universal Licensing System and Coast Guard Vessel Documentation Center.

Last reported at 2015-Jul-03 06:33 UTC. Time now 2015-Jul-04 10:13 UTC.
Position N 44°42' W 086°22'.

Length 192 m; draft 6.6 m.

Type: Cargo ship. MMSI: 367132630.

Date/timePositionNaut miles runAvg speedWind from/ knotsBaromVisibWave heightAir tempDewpointWater temp
2015-Jul-03 06:33N 44°42' W 086°22'1212.2
2015-Jul-03 05:33N 44°54' W 086°18'1212.1
2015-Jul-03 04:33N 45°06' W 086°14'1212.2
2015-Jul-03 03:33N 45°18' W 086°10'1212.5
2015-Jul-03 02:33N 45°30' W 086°06'1212.3
2015-Jul-03 01:33N 45°41' W 086°00'1212.3
2015-Jul-03 00:33N 45°53' W 085°54'5 5.4
2015-Jul-02 23:33N 45°58' W 085°52'0 0.0
2015-Jul-02 22:33N 45°58' W 085°52'0 0.0
2015-Jul-02 21:33N 45°58' W 085°52'0 0.0
2015-Jul-02 20:33N 45°58' W 085°52'0 0.0
2015-Jul-02 19:33N 45°58' W 085°52'0 0.0
2015-Jul-02 18:33N 45°58' W 085°52'0 0.0
2015-Jul-02 17:33N 45°58' W 085°52'0 0.0
2015-Jul-02 16:33N 45°58' W 085°52'0 0.0
2015-Jul-02 15:33N 45°58' W 085°52'1 0.7
2015-Jul-02 14:33N 45°58' W 085°53'10 9.6
2015-Jul-02 13:32N 45°48' W 085°56'1212.5
2015-Jul-02 12:33N 45°37' W 086°03'1212.5
2015-Jul-02 11:33N 45°25' W 086°07'1312.5
2015-Jul-02 10:33N 45°13' W 086°12'1312.7
2015-Jul-02 09:33N 45°00' W 086°16'7 0.2
2015-Jun-30 20:03N 44°53' W 086°18'812.5
2015-Jun-30 19:26N 45°01' W 086°16'1312.4
2015-Jun-30 18:22N 45°14' W 086°14'1012.3
2015-Jun-30 17:33N 45°24' W 086°12'1212.4
2015-Jun-30 16:33N 45°36' W 086°08'1211.7
2015-Jun-30 15:33N 45°46' W 085°60'1212.0
2015-Jun-30 14:33N 45°57' W 085°53'1 0.8
2015-Jun-30 13:33N 45°58' W 085°52'0 0.0
2015-Jun-30 12:33N 45°58' W 085°52'0 0.0
2015-Jun-30 11:33N 45°58' W 085°52'0 0.0
2015-Jun-30 10:33N 45°58' W 085°52'0 0.0
2015-Jun-30 09:33N 45°58' W 085°52'0 0.0
2015-Jun-30 08:33N 45°58' W 085°52'0 0.0
2015-Jun-30 07:27N 45°58' W 085°52'0 0.0
2015-Jun-30 06:33N 45°58' W 085°52'1 0.8
2015-Jun-30 05:34N 45°57' W 085°53'1010.1
2015-Jun-30 04:33N 45°48' W 085°57'1313.1
2015-Jun-30 03:34N 45°36' W 086°06'1312.9
2015-Jun-30 02:34N 45°25' W 086°13'1412.7
2015-Jun-30 01:27N 45°12' W 086°22'9212.3
2015-Jun-29 18:00N 43°42' W 086°48'31 0.7 230 / 51011.5 2.2 0.513.3
2015-Jun-27 18:00N 43°12' W 087°00'9013.7 350 / 141019.2 5.4 0.512.7
2015-Jun-27 11:24N 44°39' W 086°28'1112.5
2015-Jun-27 10:33N 44°50' W 086°25'1212.3
2015-Jun-27 09:33N 45°01' W 086°20'1212.2
2015-Jun-27 08:33N 45°13' W 086°16'1212.1
2015-Jun-27 07:33N 45°25' W 086°12'1212.2
2015-Jun-27 06:33N 45°37' W 086°08'1111.4
2015-Jun-27 05:33N 45°45' W 085°56'1212.4
2015-Jun-27 04:33N 45°51' W 085°41'1211.7
2015-Jun-27 03:33N 45°53' W 085°24'1212.2
2015-Jun-27 02:33N 45°52' W 085°07'1212.2
2015-Jun-27 01:33N 45°50' W 084°49'1211.9
2015-Jun-27 00:33N 45°45' W 084°34'1111.5
2015-Jun-26 23:33N 45°42' W 084°18'265 9.0
2015-Jun-25 18:00N 41°36' W 082°00'   270 / 71019.2 5.4 0.517.7
Track history (hours):
 
Tides and Currents Weather Stations Pressure Air Temp Water Temp Dewpoint Dewpoint Depression Visibility Wind Speed Wind Dir Waves Ship Positions

Calumet

Owner: Grand River Navigation Company, Traverse City, MI. More information available from US FCC via Universal Licensing System and Coast Guard Vessel Documentation Center.

Last reported at 2015-Jul-03 06:33 UTC. Time now 2015-Jul-04 10:13 UTC.
Position N 44°42' W 086°22'.

Length 192 m; draft 6.6 m.

Type: Cargo ship. MMSI: 367132630.

Date/timePositionNaut miles runAvg speedWind from/ knotsBaromVisibWave heightAir tempDewpointWater temp
2015-Jul-03 06:33N 44°42' W 086°22'1212.2
2015-Jul-03 05:33N 44°54' W 086°18'1212.1
2015-Jul-03 04:33N 45°06' W 086°14'1212.2
2015-Jul-03 03:33N 45°18' W 086°10'1212.5
2015-Jul-03 02:33N 45°30' W 086°06'1212.3
2015-Jul-03 01:33N 45°41' W 086°00'1212.3
2015-Jul-03 00:33N 45°53' W 085°54'5 5.4
2015-Jul-02 23:33N 45°58' W 085°52'0 0.0
2015-Jul-02 22:33N 45°58' W 085°52'0 0.0
2015-Jul-02 21:33N 45°58' W 085°52'0 0.0
2015-Jul-02 20:33N 45°58' W 085°52'0 0.0
2015-Jul-02 19:33N 45°58' W 085°52'0 0.0
2015-Jul-02 18:33N 45°58' W 085°52'0 0.0
2015-Jul-02 17:33N 45°58' W 085°52'0 0.0
2015-Jul-02 16:33N 45°58' W 085°52'0 0.0
2015-Jul-02 15:33N 45°58' W 085°52'1 0.7
2015-Jul-02 14:33N 45°58' W 085°53'10 9.6
2015-Jul-02 13:32N 45°48' W 085°56'1212.5
2015-Jul-02 12:33N 45°37' W 086°03'1212.5
2015-Jul-02 11:33N 45°25' W 086°07'1312.5
2015-Jul-02 10:33N 45°13' W 086°12'1312.7
2015-Jul-02 09:33N 45°00' W 086°16'7 0.2
2015-Jun-30 20:03N 44°53' W 086°18'812.5
2015-Jun-30 19:26N 45°01' W 086°16'1312.4
2015-Jun-30 18:22N 45°14' W 086°14'1012.3
2015-Jun-30 17:33N 45°24' W 086°12'1212.4
2015-Jun-30 16:33N 45°36' W 086°08'1211.7
2015-Jun-30 15:33N 45°46' W 085°60'1212.0
2015-Jun-30 14:33N 45°57' W 085°53'1 0.8
2015-Jun-30 13:33N 45°58' W 085°52'0 0.0
2015-Jun-30 12:33N 45°58' W 085°52'0 0.0
2015-Jun-30 11:33N 45°58' W 085°52'0 0.0
2015-Jun-30 10:33N 45°58' W 085°52'0 0.0
2015-Jun-30 09:33N 45°58' W 085°52'0 0.0
2015-Jun-30 08:33N 45°58' W 085°52'0 0.0
2015-Jun-30 07:27N 45°58' W 085°52'0 0.0
2015-Jun-30 06:33N 45°58' W 085°52'1 0.8
2015-Jun-30 05:34N 45°57' W 085°53'1010.1
2015-Jun-30 04:33N 45°48' W 085°57'1313.1
2015-Jun-30 03:34N 45°36' W 086°06'1312.9
2015-Jun-30 02:34N 45°25' W 086°13'1412.7
2015-Jun-30 01:27N 45°12' W 086°22'9212.3
2015-Jun-29 18:00N 43°42' W 086°48'31 0.7 230 / 51011.5 2.2 0.513.3
2015-Jun-27 18:00N 43°12' W 087°00'9013.7 350 / 141019.2 5.4 0.512.7
2015-Jun-27 11:24N 44°39' W 086°28'1112.5
2015-Jun-27 10:33N 44°50' W 086°25'1212.3
2015-Jun-27 09:33N 45°01' W 086°20'1212.2
2015-Jun-27 08:33N 45°13' W 086°16'1212.1
2015-Jun-27 07:33N 45°25' W 086°12'1212.2
2015-Jun-27 06:33N 45°37' W 086°08'1111.4
2015-Jun-27 05:33N 45°45' W 085°56'1212.4
2015-Jun-27 04:33N 45°51' W 085°41'1211.7
2015-Jun-27 03:33N 45°53' W 085°24'1212.2
2015-Jun-27 02:33N 45°52' W 085°07'1212.2
2015-Jun-27 01:33N 45°50' W 084°49'1211.9
2015-Jun-27 00:33N 45°45' W 084°34'1111.5
2015-Jun-26 23:33N 45°42' W 084°18'265 9.0
2015-Jun-25 18:00N 41°36' W 082°00'   270 / 71019.2 5.4 0.517.7

Dump ship's entire track history